sensor_id;sensor_type;location;lat;lon;timestamp;P1;durP1;ratioP1;P2;durP2;ratioP2
68718;SDS011;55696;52.138;5.444;2023-04-24T00:00:48;2.22;;;1.00;;
68718;SDS011;55696;52.138;5.444;2023-04-24T00:03:14;2.30;;;1.15;;
68718;SDS011;55696;52.138;5.444;2023-04-24T00:05:42;2.43;;;1.00;;
68718;SDS011;55696;52.138;5.444;2023-04-24T00:08:09;1.50;;;0.93;;
68718;SDS011;55696;52.138;5.444;2023-04-24T00:10:35;2.50;;;1.20;;
68718;SDS011;55696;52.138;5.444;2023-04-24T00:13:02;4.57;;;1.05;;
68718;SDS011;55696;52.138;5.444;2023-04-24T00:15:29;0.95;;;0.70;;
68718;SDS011;55696;52.138;5.444;2023-04-24T00:17:56;1.60;;;0.90;;
68718;SDS011;55696;52.138;5.444;2023-04-24T00:20:23;1.92;;;1.05;;
68718;SDS011;55696;52.138;5.444;2023-04-24T00:22:50;2.60;;;1.10;;
68718;SDS011;55696;52.138;5.444;2023-04-24T00:25:16;2.00;;;1.20;;
68718;SDS011;55696;52.138;5.444;2023-04-24T00:27:43;3.15;;;1.30;;
68718;SDS011;55696;52.138;5.444;2023-04-24T00:30:10;1.90;;;0.93;;
68718;SDS011;55696;52.138;5.444;2023-04-24T00:32:37;3.17;;;1.08;;
68718;SDS011;55696;52.138;5.444;2023-04-24T00:35:04;2.60;;;1.27;;
68718;SDS011;55696;52.138;5.444;2023-04-24T00:37:32;2.67;;;1.27;;
68718;SDS011;55696;52.138;5.444;2023-04-24T00:39:59;2.15;;;1.17;;
68718;SDS011;55696;52.138;5.444;2023-04-24T00:42:26;2.93;;;1.27;;
68718;SDS011;55696;52.138;5.444;2023-04-24T00:44:53;4.38;;;1.05;;
68718;SDS011;55696;52.138;5.444;2023-04-24T00:47:20;2.33;;;1.27;;
68718;SDS011;55696;52.138;5.444;2023-04-24T00:49:48;2.60;;;1.38;;
68718;SDS011;55696;52.138;5.444;2023-04-24T00:52:15;2.65;;;1.20;;
68718;SDS011;55696;52.138;5.444;2023-04-24T00:54:44;2.87;;;1.30;;
68718;SDS011;55696;52.138;5.444;2023-04-24T00:57:12;3.58;;;1.73;;
68718;SDS011;55696;52.138;5.444;2023-04-24T00:59:41;3.47;;;1.80;;
68718;SDS011;55696;52.138;5.444;2023-04-24T01:02:09;3.13;;;1.83;;
68718;SDS011;55696;52.138;5.444;2023-04-24T01:04:38;2.53;;;1.42;;
68718;SDS011;55696;52.138;5.444;2023-04-24T01:07:05;3.87;;;1.90;;
68718;SDS011;55696;52.138;5.444;2023-04-24T01:09:40;2.97;;;1.70;;
68718;SDS011;55696;52.138;5.444;2023-04-24T01:12:10;3.42;;;1.60;;
68718;SDS011;55696;52.138;5.444;2023-04-24T01:14:37;3.72;;;1.90;;
68718;SDS011;55696;52.138;5.444;2023-04-24T01:17:04;3.05;;;1.73;;
68718;SDS011;55696;52.138;5.444;2023-04-24T01:19:31;3.70;;;2.20;;
68718;SDS011;55696;52.138;5.444;2023-04-24T01:21:58;3.90;;;1.90;;
68718;SDS011;55696;52.138;5.444;2023-04-24T01:24:28;4.82;;;1.88;;
68718;SDS011;55696;52.138;5.444;2023-04-24T01:26:56;3.28;;;2.10;;
68718;SDS011;55696;52.138;5.444;2023-04-24T01:29:23;4.55;;;2.17;;
68718;SDS011;55696;52.138;5.444;2023-04-24T01:31:50;2.90;;;2.10;;
68718;SDS011;55696;52.138;5.444;2023-04-24T01:34:17;3.53;;;2.08;;
68718;SDS011;55696;52.138;5.444;2023-04-24T01:36:45;5.97;;;2.40;;
68718;SDS011;55696;52.138;5.444;2023-04-24T01:39:12;3.75;;;2.28;;
68718;SDS011;55696;52.138;5.444;2023-04-24T01:41:39;4.80;;;2.47;;
68718;SDS011;55696;52.138;5.444;2023-04-24T01:44:06;3.80;;;1.97;;
68718;SDS011;55696;52.138;5.444;2023-04-24T01:46:34;5.75;;;2.45;;
68718;SDS011;55696;52.138;5.444;2023-04-24T01:49:03;7.35;;;2.72;;
68718;SDS011;55696;52.138;5.444;2023-04-24T01:51:29;3.95;;;2.85;;
68718;SDS011;55696;52.138;5.444;2023-04-24T01:53:56;4.35;;;2.70;;
68718;SDS011;55696;52.138;5.444;2023-04-24T01:56:23;4.40;;;2.90;;
68718;SDS011;55696;52.138;5.444;2023-04-24T01:58:51;4.60;;;2.88;;
68718;SDS011;55696;52.138;5.444;2023-04-24T02:01:20;4.72;;;3.13;;
68718;SDS011;55696;52.138;5.444;2023-04-24T02:03:47;5.78;;;3.17;;
68718;SDS011;55696;52.138;5.444;2023-04-24T02:06:14;7.53;;;3.35;;
68718;SDS011;55696;52.138;5.444;2023-04-24T02:08:41;5.20;;;2.97;;
68718;SDS011;55696;52.138;5.444;2023-04-24T02:11:08;5.10;;;3.30;;
68718;SDS011;55696;52.138;5.444;2023-04-24T02:13:36;3.95;;;2.85;;
68718;SDS011;55696;52.138;5.444;2023-04-24T02:16:03;5.18;;;3.28;;
68718;SDS011;55696;52.138;5.444;2023-04-24T02:18:29;6.03;;;2.75;;
68718;SDS011;55696;52.138;5.444;2023-04-24T02:20:56;5.70;;;3.20;;
68718;SDS011;55696;52.138;5.444;2023-04-24T02:23:23;4.07;;;2.72;;
68718;SDS011;55696;52.138;5.444;2023-04-24T02:25:50;3.88;;;2.70;;
68718;SDS011;55696;52.138;5.444;2023-04-24T02:28:17;5.30;;;2.85;;
68718;SDS011;55696;52.138;5.444;2023-04-24T02:30:43;6.35;;;3.13;;
68718;SDS011;55696;52.138;5.444;2023-04-24T02:33:11;4.37;;;2.80;;
68718;SDS011;55696;52.138;5.444;2023-04-24T02:35:37;4.47;;;2.40;;
68718;SDS011;55696;52.138;5.444;2023-04-24T02:38:04;4.45;;;2.65;;
68718;SDS011;55696;52.138;5.444;2023-04-24T02:40:31;3.88;;;2.40;;
68718;SDS011;55696;52.138;5.444;2023-04-24T02:42:58;3.83;;;2.35;;
68718;SDS011;55696;52.138;5.444;2023-04-24T02:45:25;4.33;;;2.00;;
68718;SDS011;55696;52.138;5.444;2023-04-24T02:47:52;4.45;;;2.30;;
68718;SDS011;55696;52.138;5.444;2023-04-24T02:50:19;4.10;;;2.63;;
68718;SDS011;55696;52.138;5.444;2023-04-24T02:52:46;4.55;;;2.45;;
68718;SDS011;55696;52.138;5.444;2023-04-24T02:55:13;5.43;;;3.00;;
68718;SDS011;55696;52.138;5.444;2023-04-24T02:57:39;3.83;;;2.33;;
68718;SDS011;55696;52.138;5.444;2023-04-24T03:00:06;5.53;;;3.03;;
68718;SDS011;55696;52.138;5.444;2023-04-24T03:02:35;5.45;;;3.17;;
68718;SDS011;55696;52.138;5.444;2023-04-24T03:05:02;5.88;;;3.35;;
68718;SDS011;55696;52.138;5.444;2023-04-24T03:07:30;3.95;;;2.65;;
68718;SDS011;55696;52.138;5.444;2023-04-24T03:09:58;6.57;;;3.03;;
68718;SDS011;55696;52.138;5.444;2023-04-24T03:12:25;7.45;;;3.22;;
68718;SDS011;55696;52.138;5.444;2023-04-24T03:14:52;5.50;;;2.90;;
68718;SDS011;55696;52.138;5.444;2023-04-24T03:17:19;5.43;;;3.08;;
68718;SDS011;55696;52.138;5.444;2023-04-24T03:19:46;6.30;;;3.22;;
68718;SDS011;55696;52.138;5.444;2023-04-24T03:22:12;5.43;;;2.60;;
68718;SDS011;55696;52.138;5.444;2023-04-24T03:24:40;7.63;;;3.40;;
68718;SDS011;55696;52.138;5.444;2023-04-24T03:27:06;5.05;;;3.05;;
68718;SDS011;55696;52.138;5.444;2023-04-24T03:29:59;6.47;;;3.47;;
68718;SDS011;55696;52.138;5.444;2023-04-24T03:32:37;5.85;;;3.10;;
68718;SDS011;55696;52.138;5.444;2023-04-24T03:35:07;5.80;;;3.07;;
68718;SDS011;55696;52.138;5.444;2023-04-24T03:37:35;5.43;;;3.25;;
68718;SDS011;55696;52.138;5.444;2023-04-24T03:40:20;4.65;;;2.92;;
68718;SDS011;55696;52.138;5.444;2023-04-24T03:42:47;5.28;;;2.97;;
68718;SDS011;55696;52.138;5.444;2023-04-24T03:45:14;5.75;;;3.00;;
68718;SDS011;55696;52.138;5.444;2023-04-24T03:47:46;5.83;;;2.93;;
68718;SDS011;55696;52.138;5.444;2023-04-24T03:50:14;6.97;;;3.17;;
68718;SDS011;55696;52.138;5.444;2023-04-24T03:52:41;4.60;;;2.42;;
68718;SDS011;55696;52.138;5.444;2023-04-24T03:55:10;6.30;;;3.25;;
68718;SDS011;55696;52.138;5.444;2023-04-24T03:57:43;5.25;;;3.00;;
68718;SDS011;55696;52.138;5.444;2023-04-24T04:00:18;4.90;;;3.00;;
68718;SDS011;55696;52.138;5.444;2023-04-24T04:02:50;5.30;;;3.20;;
68718;SDS011;55696;52.138;5.444;2023-04-24T04:05:18;6.57;;;3.13;;
68718;SDS011;55696;52.138;5.444;2023-04-24T04:07:45;5.72;;;2.97;;
68718;SDS011;55696;52.138;5.444;2023-04-24T04:10:12;4.50;;;2.80;;
68718;SDS011;55696;52.138;5.444;2023-04-24T04:12:39;4.30;;;2.70;;
68718;SDS011;55696;52.138;5.444;2023-04-24T04:15:07;4.25;;;2.38;;
68718;SDS011;55696;52.138;5.444;2023-04-24T04:17:34;3.70;;;2.38;;
68718;SDS011;55696;52.138;5.444;2023-04-24T04:20:04;5.03;;;1.98;;
68718;SDS011;55696;52.138;5.444;2023-04-24T04:22:36;3.08;;;1.80;;
68718;SDS011;55696;52.138;5.444;2023-04-24T04:25:07;3.43;;;1.63;;
68718;SDS011;55696;52.138;5.444;2023-04-24T04:27:35;3.60;;;2.10;;
68718;SDS011;55696;52.138;5.444;2023-04-24T04:30:08;4.50;;;2.30;;
68718;SDS011;55696;52.138;5.444;2023-04-24T04:32:45;3.85;;;2.20;;
68718;SDS011;55696;52.138;5.444;2023-04-24T04:35:12;4.43;;;1.85;;
68718;SDS011;55696;52.138;5.444;2023-04-24T04:37:39;5.50;;;2.70;;
68718;SDS011;55696;52.138;5.444;2023-04-24T04:40:26;4.28;;;2.45;;
68718;SDS011;55696;52.138;5.444;2023-04-24T04:42:59;5.97;;;2.97;;
68718;SDS011;55696;52.138;5.444;2023-04-24T04:45:31;6.00;;;2.88;;
68718;SDS011;55696;52.138;5.444;2023-04-24T04:48:19;5.63;;;2.90;;
68718;SDS011;55696;52.138;5.444;2023-04-24T04:50:45;6.57;;;3.77;;
68718;SDS011;55696;52.138;5.444;2023-04-24T04:53:13;6.38;;;3.30;;
68718;SDS011;55696;52.138;5.444;2023-04-24T04:55:40;5.57;;;3.05;;
68718;SDS011;55696;52.138;5.444;2023-04-24T04:58:10;7.03;;;3.92;;
68718;SDS011;55696;52.138;5.444;2023-04-24T05:00:37;7.55;;;4.15;;
68718;SDS011;55696;52.138;5.444;2023-04-24T05:03:15;6.77;;;3.60;;
68718;SDS011;55696;52.138;5.444;2023-04-24T05:05:51;6.28;;;3.50;;
68718;SDS011;55696;52.138;5.444;2023-04-24T05:08:18;7.63;;;4.47;;
68718;SDS011;55696;52.138;5.444;2023-04-24T05:10:53;6.35;;;3.65;;
68718;SDS011;55696;52.138;5.444;2023-04-24T05:13:21;6.95;;;3.50;;
68718;SDS011;55696;52.138;5.444;2023-04-24T05:16:06;8.20;;;4.77;;
68718;SDS011;55696;52.138;5.444;2023-04-24T05:18:33;7.43;;;3.83;;
68718;SDS011;55696;52.138;5.444;2023-04-24T05:21:01;6.35;;;3.67;;
68718;SDS011;55696;52.138;5.444;2023-04-24T05:23:28;7.22;;;4.15;;
68718;SDS011;55696;52.138;5.444;2023-04-24T05:25:56;6.68;;;3.85;;
68718;SDS011;55696;52.138;5.444;2023-04-24T05:28:22;8.03;;;4.53;;
68718;SDS011;55696;52.138;5.444;2023-04-24T05:31:01;6.38;;;3.30;;
68718;SDS011;55696;52.138;5.444;2023-04-24T05:33:29;7.35;;;3.33;;
68718;SDS011;55696;52.138;5.444;2023-04-24T05:35:56;4.90;;;3.20;;
68718;SDS011;55696;52.138;5.444;2023-04-24T05:38:24;5.28;;;2.72;;
68718;SDS011;55696;52.138;5.444;2023-04-24T05:40:50;6.27;;;3.20;;
68718;SDS011;55696;52.138;5.444;2023-04-24T05:43:17;5.95;;;3.25;;
68718;SDS011;55696;52.138;5.444;2023-04-24T05:45:44;7.30;;;3.70;;
68718;SDS011;55696;52.138;5.444;2023-04-24T05:48:11;6.75;;;3.58;;
68718;SDS011;55696;52.138;5.444;2023-04-24T05:50:38;6.65;;;3.85;;
68718;SDS011;55696;52.138;5.444;2023-04-24T05:53:04;6.40;;;3.80;;
68718;SDS011;55696;52.138;5.444;2023-04-24T05:55:35;12.02;;;3.65;;
68718;SDS011;55696;52.138;5.444;2023-04-24T05:58:02;7.07;;;3.40;;
68718;SDS011;55696;52.138;5.444;2023-04-24T06:00:29;6.10;;;3.38;;
68718;SDS011;55696;52.138;5.444;2023-04-24T06:03:02;7.65;;;2.95;;
68718;SDS011;55696;52.138;5.444;2023-04-24T06:05:30;7.90;;;2.87;;
68718;SDS011;55696;52.138;5.444;2023-04-24T06:07:57;7.38;;;2.53;;
68718;SDS011;55696;52.138;5.444;2023-04-24T06:10:28;3.30;;;1.70;;
68718;SDS011;55696;52.138;5.444;2023-04-24T06:12:56;3.60;;;1.80;;
68718;SDS011;55696;52.138;5.444;2023-04-24T06:15:28;5.32;;;2.28;;
68718;SDS011;55696;52.138;5.444;2023-04-24T06:18:01;5.67;;;2.47;;
68718;SDS011;55696;52.138;5.444;2023-04-24T06:20:28;4.25;;;1.50;;
68718;SDS011;55696;52.138;5.444;2023-04-24T06:22:55;3.15;;;1.38;;
68718;SDS011;55696;52.138;5.444;2023-04-24T06:25:21;2.67;;;1.35;;
68718;SDS011;55696;52.138;5.444;2023-04-24T06:27:50;4.47;;;1.50;;
68718;SDS011;55696;52.138;5.444;2023-04-24T06:30:17;5.40;;;1.60;;
68718;SDS011;55696;52.138;5.444;2023-04-24T06:32:44;6.00;;;1.40;;
68718;SDS011;55696;52.138;5.444;2023-04-24T06:35:11;2.72;;;1.33;;
68718;SDS011;55696;52.138;5.444;2023-04-24T06:37:39;2.25;;;1.00;;
68718;SDS011;55696;52.138;5.444;2023-04-24T06:40:06;2.72;;;1.38;;
68718;SDS011;55696;52.138;5.444;2023-04-24T06:42:34;1.90;;;1.00;;
68718;SDS011;55696;52.138;5.444;2023-04-24T06:45:02;4.78;;;2.05;;
68718;SDS011;55696;52.138;5.444;2023-04-24T06:47:29;5.13;;;2.30;;
68718;SDS011;55696;52.138;5.444;2023-04-24T06:49:56;8.00;;;3.10;;
68718;SDS011;55696;52.138;5.444;2023-04-24T06:52:23;7.72;;;3.85;;
68718;SDS011;55696;52.138;5.444;2023-04-24T06:54:50;8.33;;;4.20;;
68718;SDS011;55696;52.138;5.444;2023-04-24T06:57:17;11.38;;;5.43;;
68718;SDS011;55696;52.138;5.444;2023-04-24T06:59:44;10.95;;;5.32;;
68718;SDS011;55696;52.138;5.444;2023-04-24T07:02:11;12.27;;;5.43;;
68718;SDS011;55696;52.138;5.444;2023-04-24T07:04:38;9.10;;;5.45;;
68718;SDS011;55696;52.138;5.444;2023-04-24T07:07:05;11.00;;;5.57;;
68718;SDS011;55696;52.138;5.444;2023-04-24T07:09:33;14.90;;;6.13;;
68718;SDS011;55696;52.138;5.444;2023-04-24T07:12:01;9.68;;;5.88;;
68718;SDS011;55696;52.138;5.444;2023-04-24T07:14:28;11.82;;;5.47;;
68718;SDS011;55696;52.138;5.444;2023-04-24T07:16:54;15.10;;;6.35;;
68718;SDS011;55696;52.138;5.444;2023-04-24T07:19:23;14.07;;;6.20;;
68718;SDS011;55696;52.138;5.444;2023-04-24T07:21:50;15.15;;;6.13;;
68718;SDS011;55696;52.138;5.444;2023-04-24T07:24:16;15.68;;;5.75;;
68718;SDS011;55696;52.138;5.444;2023-04-24T07:26:46;16.75;;;6.28;;
68718;SDS011;55696;52.138;5.444;2023-04-24T07:29:12;13.68;;;5.57;;
68718;SDS011;55696;52.138;5.444;2023-04-24T07:31:40;13.73;;;5.20;;
68718;SDS011;55696;52.138;5.444;2023-04-24T07:34:07;12.07;;;5.45;;
68718;SDS011;55696;52.138;5.444;2023-04-24T07:36:34;11.40;;;4.95;;
68718;SDS011;55696;52.138;5.444;2023-04-24T07:39:01;11.88;;;5.25;;
68718;SDS011;55696;52.138;5.444;2023-04-24T07:41:28;10.18;;;5.10;;
68718;SDS011;55696;52.138;5.444;2023-04-24T07:43:54;13.70;;;6.07;;
68718;SDS011;55696;52.138;5.444;2023-04-24T07:46:21;12.02;;;5.60;;
68718;SDS011;55696;52.138;5.444;2023-04-24T07:48:49;12.48;;;5.28;;
68718;SDS011;55696;52.138;5.444;2023-04-24T07:51:30;15.63;;;6.28;;
68718;SDS011;55696;52.138;5.444;2023-04-24T07:53:59;14.45;;;5.70;;
68718;SDS011;55696;52.138;5.444;2023-04-24T07:56:26;12.93;;;5.30;;
68718;SDS011;55696;52.138;5.444;2023-04-24T07:58:53;10.70;;;4.88;;
68718;SDS011;55696;52.138;5.444;2023-04-24T08:01:20;9.07;;;4.68;;
68718;SDS011;55696;52.138;5.444;2023-04-24T08:03:47;11.35;;;5.30;;
68718;SDS011;55696;52.138;5.444;2023-04-24T08:06:14;12.10;;;5.70;;
68718;SDS011;55696;52.138;5.444;2023-04-24T08:08:41;11.30;;;5.40;;
68718;SDS011;55696;52.138;5.444;2023-04-24T08:11:08;11.15;;;5.63;;
68718;SDS011;55696;52.138;5.444;2023-04-24T08:13:34;12.15;;;5.90;;
68718;SDS011;55696;52.138;5.444;2023-04-24T08:16:01;9.80;;;4.20;;
68718;SDS011;55696;52.138;5.444;2023-04-24T08:18:28;12.95;;;4.32;;
68718;SDS011;55696;52.138;5.444;2023-04-24T08:20:55;15.20;;;4.63;;
68718;SDS011;55696;52.138;5.444;2023-04-24T08:23:27;7.07;;;3.47;;
68718;SDS011;55696;52.138;5.444;2023-04-24T08:25:55;14.57;;;4.10;;
68718;SDS011;55696;52.138;5.444;2023-04-24T08:28:23;13.27;;;3.72;;
68718;SDS011;55696;52.138;5.444;2023-04-24T08:30:50;12.60;;;3.60;;
68718;SDS011;55696;52.138;5.444;2023-04-24T08:33:22;11.70;;;3.07;;
68718;SDS011;55696;52.138;5.444;2023-04-24T08:35:49;8.82;;;3.03;;
68718;SDS011;55696;52.138;5.444;2023-04-24T08:38:16;10.02;;;3.10;;
68718;SDS011;55696;52.138;5.444;2023-04-24T08:40:43;11.43;;;3.53;;
68718;SDS011;55696;52.138;5.444;2023-04-24T08:43:12;7.28;;;2.90;;
68718;SDS011;55696;52.138;5.444;2023-04-24T08:45:40;9.43;;;3.13;;
68718;SDS011;55696;52.138;5.444;2023-04-24T08:48:07;9.05;;;2.83;;
68718;SDS011;55696;52.138;5.444;2023-04-24T08:50:52;7.70;;;2.60;;
68718;SDS011;55696;52.138;5.444;2023-04-24T08:53:20;13.82;;;3.15;;
68718;SDS011;55696;52.138;5.444;2023-04-24T08:55:47;16.38;;;3.30;;
68718;SDS011;55696;52.138;5.444;2023-04-24T08:58:15;14.23;;;3.10;;
68718;SDS011;55696;52.138;5.444;2023-04-24T09:00:42;14.32;;;2.90;;
68718;SDS011;55696;52.138;5.444;2023-04-24T09:03:16;13.32;;;3.58;;
68718;SDS011;55696;52.138;5.444;2023-04-24T09:05:44;12.38;;;2.75;;
68718;SDS011;55696;52.138;5.444;2023-04-24T09:08:13;9.27;;;2.60;;
68718;SDS011;55696;52.138;5.444;2023-04-24T09:10:40;10.40;;;2.97;;
68718;SDS011;55696;52.138;5.444;2023-04-24T09:13:07;5.50;;;2.13;;
68718;SDS011;55696;52.138;5.444;2023-04-24T09:15:38;9.52;;;1.95;;
68718;SDS011;55696;52.138;5.444;2023-04-24T09:18:06;11.63;;;2.30;;
68718;SDS011;55696;52.138;5.444;2023-04-24T09:20:33;9.77;;;2.70;;
68718;SDS011;55696;52.138;5.444;2023-04-24T09:23:02;9.33;;;2.00;;
68718;SDS011;55696;52.138;5.444;2023-04-24T09:25:32;13.23;;;2.22;;
68718;SDS011;55696;52.138;5.444;2023-04-24T09:28:02;7.43;;;2.00;;
68718;SDS011;55696;52.138;5.444;2023-04-24T09:30:32;15.77;;;2.78;;
68718;SDS011;55696;52.138;5.444;2023-04-24T09:33:14;11.98;;;2.30;;
68718;SDS011;55696;52.138;5.444;2023-04-24T09:35:42;11.13;;;2.67;;
68718;SDS011;55696;52.138;5.444;2023-04-24T09:38:16;8.73;;;2.72;;
68718;SDS011;55696;52.138;5.444;2023-04-24T09:40:42;8.38;;;1.92;;
68718;SDS011;55696;52.138;5.444;2023-04-24T09:43:12;11.27;;;2.10;;
68718;SDS011;55696;52.138;5.444;2023-04-24T09:45:39;8.75;;;2.00;;
68718;SDS011;55696;52.138;5.444;2023-04-24T09:48:09;12.43;;;2.83;;
68718;SDS011;55696;52.138;5.444;2023-04-24T09:50:37;4.55;;;2.40;;
68718;SDS011;55696;52.138;5.444;2023-04-24T09:53:04;5.65;;;2.30;;
68718;SDS011;55696;52.138;5.444;2023-04-24T09:55:38;9.38;;;2.20;;
68718;SDS011;55696;52.138;5.444;2023-04-24T09:58:07;16.83;;;2.45;;
68718;SDS011;55696;52.138;5.444;2023-04-24T10:00:34;15.90;;;2.27;;
68718;SDS011;55696;52.138;5.444;2023-04-24T10:03:02;5.90;;;2.00;;
68718;SDS011;55696;52.138;5.444;2023-04-24T10:05:35;17.95;;;2.30;;
68718;SDS011;55696;52.138;5.444;2023-04-24T10:08:03;7.53;;;1.92;;
68718;SDS011;55696;52.138;5.444;2023-04-24T10:10:35;4.88;;;2.13;;
68718;SDS011;55696;52.138;5.444;2023-04-24T10:13:09;7.70;;;2.50;;
68718;SDS011;55696;52.138;5.444;2023-04-24T10:15:37;6.88;;;2.20;;
68718;SDS011;55696;52.138;5.444;2023-04-24T10:18:06;8.32;;;3.15;;
68718;SDS011;55696;52.138;5.444;2023-04-24T10:20:35;12.95;;;2.13;;
68718;SDS011;55696;52.138;5.444;2023-04-24T10:23:03;8.40;;;2.28;;
68718;SDS011;55696;52.138;5.444;2023-04-24T10:25:31;13.17;;;2.17;;
68718;SDS011;55696;52.138;5.444;2023-04-24T10:28:00;11.02;;;2.35;;
68718;SDS011;55696;52.138;5.444;2023-04-24T10:30:29;7.57;;;1.67;;
68718;SDS011;55696;52.138;5.444;2023-04-24T10:33:04;8.93;;;1.88;;
68718;SDS011;55696;52.138;5.444;2023-04-24T10:35:34;7.15;;;1.23;;
68718;SDS011;55696;52.138;5.444;2023-04-24T10:38:06;7.07;;;1.43;;
68718;SDS011;55696;52.138;5.444;2023-04-24T10:40:37;3.58;;;1.30;;
68718;SDS011;55696;52.138;5.444;2023-04-24T10:43:04;5.05;;;1.48;;
68718;SDS011;55696;52.138;5.444;2023-04-24T10:45:34;2.53;;;1.00;;
68718;SDS011;55696;52.138;5.444;2023-04-24T10:48:01;4.88;;;1.70;;
68718;SDS011;55696;52.138;5.444;2023-04-24T10:53:15;5.38;;;1.42;;
68718;SDS011;55696;52.138;5.444;2023-04-24T10:55:44;3.90;;;1.05;;
68718;SDS011;55696;52.138;5.444;2023-04-24T10:58:13;2.97;;;1.45;;
68718;SDS011;55696;52.138;5.444;2023-04-24T11:00:43;8.90;;;1.40;;
68718;SDS011;55696;52.138;5.444;2023-04-24T11:03:28;4.90;;;1.63;;
68718;SDS011;55696;52.138;5.444;2023-04-24T11:06:03;3.33;;;1.10;;
68718;SDS011;55696;52.138;5.444;2023-04-24T11:29:43;6.80;;;1.37;;
68718;SDS011;55696;52.138;5.444;2023-04-24T11:34:55;5.43;;;1.42;;
68718;SDS011;55696;52.138;5.444;2023-04-24T11:37:24;3.88;;;1.60;;
68718;SDS011;55696;52.138;5.444;2023-04-24T11:39:53;5.70;;;1.58;;
68718;SDS011;55696;52.138;5.444;2023-04-24T11:42:23;4.57;;;1.20;;
68718;SDS011;55696;52.138;5.444;2023-04-24T11:44:52;6.10;;;1.42;;
68718;SDS011;55696;52.138;5.444;2023-04-24T11:47:31;4.50;;;1.58;;
68718;SDS011;55696;52.138;5.444;2023-04-24T11:50:00;4.05;;;1.33;;
68718;SDS011;55696;52.138;5.444;2023-04-24T11:52:29;2.13;;;1.20;;
68718;SDS011;55696;52.138;5.444;2023-04-24T11:54:56;6.33;;;1.60;;
68718;SDS011;55696;52.138;5.444;2023-04-24T11:57:24;4.22;;;1.05;;
68718;SDS011;55696;52.138;5.444;2023-04-24T11:59:54;5.32;;;1.23;;
68718;SDS011;55696;52.138;5.444;2023-04-24T12:02:25;1.25;;;0.80;;
68718;SDS011;55696;52.138;5.444;2023-04-24T12:04:53;3.58;;;1.20;;
68718;SDS011;55696;52.138;5.444;2023-04-24T12:07:21;2.00;;;0.83;;
68718;SDS011;55696;52.138;5.444;2023-04-24T12:09:59;1.67;;;0.90;;
68718;SDS011;55696;52.138;5.444;2023-04-24T12:12:27;4.18;;;0.80;;
68718;SDS011;55696;52.138;5.444;2023-04-24T12:14:55;3.25;;;1.13;;
68718;SDS011;55696;52.138;5.444;2023-04-24T12:17:24;2.33;;;1.17;;
68718;SDS011;55696;52.138;5.444;2023-04-24T12:19:58;4.63;;;1.20;;
68718;SDS011;55696;52.138;5.444;2023-04-24T12:22:27;5.03;;;1.17;;
68718;SDS011;55696;52.138;5.444;2023-04-24T12:24:56;2.50;;;1.15;;
68718;SDS011;55696;52.138;5.444;2023-04-24T12:27:30;8.48;;;1.50;;
68718;SDS011;55696;52.138;5.444;2023-04-24T12:29:59;4.30;;;1.42;;
68718;SDS011;55696;52.138;5.444;2023-04-24T12:32:27;4.37;;;1.23;;
68718;SDS011;55696;52.138;5.444;2023-04-24T12:34:55;5.10;;;1.10;;
68718;SDS011;55696;52.138;5.444;2023-04-24T12:37:23;6.43;;;1.30;;
68718;SDS011;55696;52.138;5.444;2023-04-24T12:40:01;5.47;;;1.45;;
68718;SDS011;55696;52.138;5.444;2023-04-24T12:42:34;8.18;;;1.67;;
68718;SDS011;55696;52.138;5.444;2023-04-24T12:45:05;6.30;;;1.53;;
68718;SDS011;55696;52.138;5.444;2023-04-24T12:47:33;7.95;;;1.40;;
68718;SDS011;55696;52.138;5.444;2023-04-24T12:50:01;7.85;;;1.25;;
68718;SDS011;55696;52.138;5.444;2023-04-24T12:52:29;3.70;;;1.23;;
68718;SDS011;55696;52.138;5.444;2023-04-24T12:54:57;4.30;;;1.58;;
68718;SDS011;55696;52.138;5.444;2023-04-24T12:57:29;9.67;;;1.60;;
68718;SDS011;55696;52.138;5.444;2023-04-24T12:59:56;6.30;;;1.42;;
68718;SDS011;55696;52.138;5.444;2023-04-24T13:02:25;5.93;;;1.75;;
68718;SDS011;55696;52.138;5.444;2023-04-24T13:04:54;8.57;;;1.88;;
68718;SDS011;55696;52.138;5.444;2023-04-24T13:07:21;6.68;;;1.40;;
68718;SDS011;55696;52.138;5.444;2023-04-24T13:09:49;6.90;;;2.17;;
68718;SDS011;55696;52.138;5.444;2023-04-24T13:12:16;8.35;;;1.65;;
68718;SDS011;55696;52.138;5.444;2023-04-24T13:14:44;8.18;;;2.20;;
68718;SDS011;55696;52.138;5.444;2023-04-24T13:17:11;10.40;;;2.28;;
68718;SDS011;55696;52.138;5.444;2023-04-24T13:19:40;7.22;;;2.40;;
68718;SDS011;55696;52.138;5.444;2023-04-24T13:22:09;13.80;;;2.33;;
68718;SDS011;55696;52.138;5.444;2023-04-24T13:24:37;12.60;;;2.88;;
68718;SDS011;55696;52.138;5.444;2023-04-24T13:27:07;12.65;;;2.55;;
68718;SDS011;55696;52.138;5.444;2023-04-24T13:29:35;9.40;;;1.98;;
68718;SDS011;55696;52.138;5.444;2023-04-24T13:32:02;15.73;;;3.10;;
68718;SDS011;55696;52.138;5.444;2023-04-24T13:34:29;23.53;;;2.70;;
68718;SDS011;55696;52.138;5.444;2023-04-24T13:36:57;10.57;;;2.00;;
68718;SDS011;55696;52.138;5.444;2023-04-24T13:39:25;8.77;;;2.08;;
68718;SDS011;55696;52.138;5.444;2023-04-24T13:41:53;7.20;;;1.63;;
68718;SDS011;55696;52.138;5.444;2023-04-24T13:44:20;8.18;;;2.00;;
68718;SDS011;55696;52.138;5.444;2023-04-24T13:46:48;11.57;;;2.80;;
68718;SDS011;55696;52.138;5.444;2023-04-24T13:49:18;11.48;;;2.22;;
68718;SDS011;55696;52.138;5.444;2023-04-24T13:51:45;10.73;;;2.28;;
68718;SDS011;55696;52.138;5.444;2023-04-24T13:54:12;9.60;;;2.13;;
68718;SDS011;55696;52.138;5.444;2023-04-24T13:56:39;17.52;;;2.90;;
68718;SDS011;55696;52.138;5.444;2023-04-24T13:59:06;10.83;;;2.80;;
68718;SDS011;55696;52.138;5.444;2023-04-24T14:01:33;11.60;;;2.20;;
68718;SDS011;55696;52.138;5.444;2023-04-24T14:04:01;15.55;;;2.47;;
68718;SDS011;55696;52.138;5.444;2023-04-24T14:06:28;9.88;;;2.30;;
68718;SDS011;55696;52.138;5.444;2023-04-24T14:08:54;7.30;;;2.38;;
68718;SDS011;55696;52.138;5.444;2023-04-24T14:11:21;11.87;;;2.70;;
68718;SDS011;55696;52.138;5.444;2023-04-24T14:13:48;11.90;;;2.22;;
68718;SDS011;55696;52.138;5.444;2023-04-24T14:16:15;10.15;;;2.58;;
68718;SDS011;55696;52.138;5.444;2023-04-24T14:18:42;12.68;;;2.83;;
68718;SDS011;55696;52.138;5.444;2023-04-24T14:21:09;14.23;;;2.33;;
68718;SDS011;55696;52.138;5.444;2023-04-24T14:23:36;8.13;;;2.20;;
68718;SDS011;55696;52.138;5.444;2023-04-24T14:26:03;11.85;;;2.22;;
68718;SDS011;55696;52.138;5.444;2023-04-24T14:28:29;8.75;;;2.47;;
68718;SDS011;55696;52.138;5.444;2023-04-24T14:30:56;11.95;;;2.65;;
68718;SDS011;55696;52.138;5.444;2023-04-24T14:33:23;9.18;;;2.20;;
68718;SDS011;55696;52.138;5.444;2023-04-24T14:35:50;16.97;;;2.90;;
68718;SDS011;55696;52.138;5.444;2023-04-24T14:38:16;11.85;;;2.95;;
68718;SDS011;55696;52.138;5.444;2023-04-24T14:40:43;17.30;;;3.15;;
68718;SDS011;55696;52.138;5.444;2023-04-24T14:43:30;10.18;;;2.47;;
68718;SDS011;55696;52.138;5.444;2023-04-24T14:45:57;8.18;;;2.72;;
68718;SDS011;55696;52.138;5.444;2023-04-24T14:48:23;15.73;;;2.60;;
68718;SDS011;55696;52.138;5.444;2023-04-24T14:50:50;17.00;;;2.80;;
68718;SDS011;55696;52.138;5.444;2023-04-24T14:53:17;12.75;;;2.83;;
68718;SDS011;55696;52.138;5.444;2023-04-24T14:55:44;14.00;;;3.25;;
68718;SDS011;55696;52.138;5.444;2023-04-24T14:58:11;9.75;;;3.15;;
68718;SDS011;55696;52.138;5.444;2023-04-24T15:00:38;8.00;;;2.83;;
68718;SDS011;55696;52.138;5.444;2023-04-24T15:03:05;12.02;;;3.22;;
68718;SDS011;55696;52.138;5.444;2023-04-24T15:05:32;12.02;;;3.22;;
68718;SDS011;55696;52.138;5.444;2023-04-24T15:08:00;12.75;;;3.05;;
68718;SDS011;55696;52.138;5.444;2023-04-24T15:10:26;14.05;;;2.97;;
68718;SDS011;55696;52.138;5.444;2023-04-24T15:12:55;9.97;;;2.93;;
68718;SDS011;55696;52.138;5.444;2023-04-24T15:15:22;11.90;;;2.97;;
68718;SDS011;55696;52.138;5.444;2023-04-24T15:17:49;11.07;;;3.13;;